sensor_id;sensor_type;location;lat;lon;timestamp;temperature;humidity
5786;DHT22;2919;48.630;9.000;2023-06-04T16:53:26;25.50;40.80
5786;DHT22;2919;48.630;9.000;2023-06-04T16:55:54;24.60;43.50
5786;DHT22;2919;48.630;9.000;2023-06-04T16:58:20;24.20;41.50
5786;DHT22;2919;48.630;9.000;2023-06-04T17:00:45;23.80;42.30
5786;DHT22;2919;48.630;9.000;2023-06-04T17:03:12;23.60;44.10
5786;DHT22;2919;48.630;9.000;2023-06-04T17:05:38;23.40;43.40
5786;DHT22;2919;48.630;9.000;2023-06-04T17:08:03;23.40;42.70
5786;DHT22;2919;48.630;9.000;2023-06-04T17:10:30;23.30;42.40
5786;DHT22;2919;48.630;9.000;2023-06-04T17:13:00;23.30;43.70
5786;DHT22;2919;48.630;9.000;2023-06-04T17:15:28;23.30;43.60
5786;DHT22;2919;48.630;9.000;2023-06-04T17:17:54;23.30;43.60
5786;DHT22;2919;48.630;9.000;2023-06-04T17:20:26;23.20;43.70
5786;DHT22;2919;48.630;9.000;2023-06-04T17:22:53;23.30;43.10
5786;DHT22;2919;48.630;9.000;2023-06-04T17:25:18;23.20;44.10
5786;DHT22;2919;48.630;9.000;2023-06-04T17:27:44;23.10;45.50
5786;DHT22;2919;48.630;9.000;2023-06-04T17:30:11;23.00;45.50
5786;DHT22;2919;48.630;9.000;2023-06-04T17:32:36;22.90;47.60
5786;DHT22;2919;48.630;9.000;2023-06-04T17:35:02;22.90;47.10
5786;DHT22;2919;48.630;9.000;2023-06-04T17:37:28;22.70;46.60
5786;DHT22;2919;48.630;9.000;2023-06-04T17:39:53;22.70;45.70
5786;DHT22;2919;48.630;9.000;2023-06-04T17:42:19;22.60;46.20
5786;DHT22;2919;48.630;9.000;2023-06-04T17:44:45;22.70;46.30
5786;DHT22;2919;48.630;9.000;2023-06-04T17:47:10;22.50;46.90
5786;DHT22;2919;48.630;9.000;2023-06-04T17:49:36;22.40;46.80
5786;DHT22;2919;48.630;9.000;2023-06-04T17:52:01;22.40;46.00
5786;DHT22;2919;48.630;9.000;2023-06-04T17:54:27;22.30;47.30
5786;DHT22;2919;48.630;9.000;2023-06-04T17:56:53;22.20;47.30
5786;DHT22;2919;48.630;9.000;2023-06-04T17:59:18;22.20;47.40
5786;DHT22;2919;48.630;9.000;2023-06-04T18:01:44;22.10;46.90
5786;DHT22;2919;48.630;9.000;2023-06-04T18:04:10;22.10;47.80
5786;DHT22;2919;48.630;9.000;2023-06-04T18:06:35;22.00;48.00
5786;DHT22;2919;48.630;9.000;2023-06-04T18:09:01;21.90;49.30
5786;DHT22;2919;48.630;9.000;2023-06-04T18:11:27;21.90;46.80
5786;DHT22;2919;48.630;9.000;2023-06-04T18:13:53;21.80;48.40
5786;DHT22;2919;48.630;9.000;2023-06-04T18:16:18;21.80;48.30
5786;DHT22;2919;48.630;9.000;2023-06-04T18:18:44;21.70;49.40
5786;DHT22;2919;48.630;9.000;2023-06-04T18:21:11;21.60;49.80
5786;DHT22;2919;48.630;9.000;2023-06-04T18:23:37;21.60;49.00
5786;DHT22;2919;48.630;9.000;2023-06-04T18:26:03;21.50;51.00
5786;DHT22;2919;48.630;9.000;2023-06-04T18:28:28;21.40;51.20
5786;DHT22;2919;48.630;9.000;2023-06-04T18:30:54;21.30;50.60
5786;DHT22;2919;48.630;9.000;2023-06-04T18:33:22;21.20;50.90
5786;DHT22;2919;48.630;9.000;2023-06-04T18:35:50;21.20;52.10
5786;DHT22;2919;48.630;9.000;2023-06-04T18:38:15;21.00;52.00
5786;DHT22;2919;48.630;9.000;2023-06-04T18:40:41;21.00;52.40
5786;DHT22;2919;48.630;9.000;2023-06-04T18:43:06;20.90;52.20
5786;DHT22;2919;48.630;9.000;2023-06-04T18:45:32;20.90;50.70
5786;DHT22;2919;48.630;9.000;2023-06-04T18:47:57;20.80;49.40
5786;DHT22;2919;48.630;9.000;2023-06-04T18:50:23;20.90;49.30
5786;DHT22;2919;48.630;9.000;2023-06-04T18:52:49;20.80;49.90
5786;DHT22;2919;48.630;9.000;2023-06-04T18:55:15;20.80;50.80
5786;DHT22;2919;48.630;9.000;2023-06-04T18:57:41;20.70;50.50
5786;DHT22;2919;48.630;9.000;2023-06-04T19:00:07;20.60;51.50
5786;DHT22;2919;48.630;9.000;2023-06-04T19:02:37;20.50;51.60
5786;DHT22;2919;48.630;9.000;2023-06-04T19:05:03;20.40;51.30
5786;DHT22;2919;48.630;9.000;2023-06-04T19:07:30;20.30;51.40
5786;DHT22;2919;48.630;9.000;2023-06-04T19:09:57;20.20;53.10
5786;DHT22;2919;48.630;9.000;2023-06-04T19:12:24;20.00;52.80
5786;DHT22;2919;48.630;9.000;2023-06-04T19:14:51;19.90;53.10
5786;DHT22;2919;48.630;9.000;2023-06-04T19:17:21;19.70;53.50
5786;DHT22;2919;48.630;9.000;2023-06-04T19:19:47;19.60;54.90
5786;DHT22;2919;48.630;9.000;2023-06-04T19:22:14;19.40;55.10
5786;DHT22;2919;48.630;9.000;2023-06-04T19:24:40;19.20;56.20
5786;DHT22;2919;48.630;9.000;2023-06-04T19:27:06;19.00;56.60
5786;DHT22;2919;48.630;9.000;2023-06-04T19:29:32;18.80;57.40
5786;DHT22;2919;48.630;9.000;2023-06-04T19:31:57;18.60;57.10
5786;DHT22;2919;48.630;9.000;2023-06-04T19:34:23;18.50;57.00
5786;DHT22;2919;48.630;9.000;2023-06-04T19:36:49;18.40;57.70
5786;DHT22;2919;48.630;9.000;2023-06-04T19:39:14;18.30;57.70
5786;DHT22;2919;48.630;9.000;2023-06-04T19:41:40;18.20;57.60
5786;DHT22;2919;48.630;9.000;2023-06-04T19:44:05;18.10;58.40
5786;DHT22;2919;48.630;9.000;2023-06-04T19:46:31;18.00;58.30
5786;DHT22;2919;48.630;9.000;2023-06-04T19:48:57;17.90;58.20
5786;DHT22;2919;48.630;9.000;2023-06-04T19:51:27;17.80;59.60
5786;DHT22;2919;48.630;9.000;2023-06-04T19:53:53;17.70;61.00
5786;DHT22;2919;48.630;9.000;2023-06-04T19:56:19;17.60;62.20
5786;DHT22;2919;48.630;9.000;2023-06-04T19:58:44;17.50;63.60
5786;DHT22;2919;48.630;9.000;2023-06-04T20:01:11;17.40;63.60
5786;DHT22;2919;48.630;9.000;2023-06-04T20:03:37;17.20;65.00
5786;DHT22;2919;48.630;9.000;2023-06-04T20:06:04;17.10;66.10
5786;DHT22;2919;48.630;9.000;2023-06-04T20:08:30;17.00;66.60
5786;DHT22;2919;48.630;9.000;2023-06-04T20:10:56;16.90;67.60
5786;DHT22;2919;48.630;9.000;2023-06-04T20:13:21;16.80;68.40
5786;DHT22;2919;48.630;9.000;2023-06-04T20:15:47;16.60;68.30
5786;DHT22;2919;48.630;9.000;2023-06-04T20:18:13;16.50;68.30
5786;DHT22;2919;48.630;9.000;2023-06-04T20:20:38;16.40;69.50
5786;DHT22;2919;48.630;9.000;2023-06-04T20:23:04;16.30;70.00
5786;DHT22;2919;48.630;9.000;2023-06-04T20:25:30;16.20;70.90
5786;DHT22;2919;48.630;9.000;2023-06-04T20:27:56;16.10;71.50
5786;DHT22;2919;48.630;9.000;2023-06-04T20:30:21;16.10;71.50
5786;DHT22;2919;48.630;9.000;2023-06-04T20:32:47;16.00;71.50
5786;DHT22;2919;48.630;9.000;2023-06-04T20:35:14;15.90;71.10
5786;DHT22;2919;48.630;9.000;2023-06-04T20:37:40;15.90;71.80
5786;DHT22;2919;48.630;9.000;2023-06-04T20:40:06;15.80;71.90
5786;DHT22;2919;48.630;9.000;2023-06-04T20:42:31;15.80;71.80
5786;DHT22;2919;48.630;9.000;2023-06-04T20:44:57;15.60;72.40
5786;DHT22;2919;48.630;9.000;2023-06-04T20:47:23;15.60;72.30
5786;DHT22;2919;48.630;9.000;2023-06-04T20:49:48;15.50;72.60
5786;DHT22;2919;48.630;9.000;2023-06-04T20:52:15;15.50;72.50
5786;DHT22;2919;48.630;9.000;2023-06-04T20:54:40;15.40;73.10
5786;DHT22;2919;48.630;9.000;2023-06-04T20:57:06;15.40;72.70
5786;DHT22;2919;48.630;9.000;2023-06-04T20:59:31;15.30;73.00
5786;DHT22;2919;48.630;9.000;2023-06-04T21:01:58;15.30;73.40
5786;DHT22;2919;48.630;9.000;2023-06-04T21:04:24;15.20;73.50
5786;DHT22;2919;48.630;9.000;2023-06-04T21:06:49;15.10;73.70
5786;DHT22;2919;48.630;9.000;2023-06-04T21:09:15;15.10;74.50
5786;DHT22;2919;48.630;9.000;2023-06-04T21:11:41;15.00;74.50
5786;DHT22;2919;48.630;9.000;2023-06-04T21:14:06;15.00;74.40
5786;DHT22;2919;48.630;9.000;2023-06-04T21:16:32;14.80;74.90
5786;DHT22;2919;48.630;9.000;2023-06-04T21:18:58;14.80;74.90
5786;DHT22;2919;48.630;9.000;2023-06-04T21:21:23;14.70;75.50
5786;DHT22;2919;48.630;9.000;2023-06-04T21:23:49;14.60;75.80
5786;DHT22;2919;48.630;9.000;2023-06-04T21:26:14;14.60;76.10
5786;DHT22;2919;48.630;9.000;2023-06-04T21:28:40;14.50;76.20
5786;DHT22;2919;48.630;9.000;2023-06-04T21:31:05;14.50;76.30
5786;DHT22;2919;48.630;9.000;2023-06-04T21:33:31;14.40;76.80
5786;DHT22;2919;48.630;9.000;2023-06-04T21:35:57;14.40;77.00
5786;DHT22;2919;48.630;9.000;2023-06-04T21:38:22;14.30;76.60
5786;DHT22;2919;48.630;9.000;2023-06-04T21:40:48;14.30;76.60
5786;DHT22;2919;48.630;9.000;2023-06-04T21:43:14;14.30;76.60
5786;DHT22;2919;48.630;9.000;2023-06-04T21:45:39;14.20;76.40
5786;DHT22;2919;48.630;9.000;2023-06-04T21:48:05;14.20;76.50
5786;DHT22;2919;48.630;9.000;2023-06-04T21:50:30;14.10;76.40
5786;DHT22;2919;48.630;9.000;2023-06-04T21:52:56;14.10;76.20
5786;DHT22;2919;48.630;9.000;2023-06-04T21:55:21;14.00;76.30
5786;DHT22;2919;48.630;9.000;2023-06-04T21:57:49;13.90;76.00
5786;DHT22;2919;48.630;9.000;2023-06-04T22:00:15;14.00;76.20
5786;DHT22;2919;48.630;9.000;2023-06-04T22:02:41;13.90;76.50
5786;DHT22;2919;48.630;9.000;2023-06-04T22:05:06;13.90;76.50
5786;DHT22;2919;48.630;9.000;2023-06-04T22:07:33;13.90;76.50
5786;DHT22;2919;48.630;9.000;2023-06-04T22:09:58;13.80;76.70
5786;DHT22;2919;48.630;9.000;2023-06-04T22:12:24;13.70;76.70
5786;DHT22;2919;48.630;9.000;2023-06-04T22:14:52;13.70;76.70
5786;DHT22;2919;48.630;9.000;2023-06-04T22:17:17;13.70;77.30
5786;DHT22;2919;48.630;9.000;2023-06-04T22:19:43;13.60;77.50
5786;DHT22;2919;48.630;9.000;2023-06-04T22:22:09;13.60;77.70
5786;DHT22;2919;48.630;9.000;2023-06-04T22:24:34;13.60;77.70
5786;DHT22;2919;48.630;9.000;2023-06-04T22:27:00;13.50;77.30
5786;DHT22;2919;48.630;9.000;2023-06-04T22:29:25;13.50;77.60
5786;DHT22;2919;48.630;9.000;2023-06-04T22:31:51;13.50;76.80
5786;DHT22;2919;48.630;9.000;2023-06-04T22:34:16;13.40;78.00
5786;DHT22;2919;48.630;9.000;2023-06-04T22:36:42;13.40;78.60
5786;DHT22;2919;48.630;9.000;2023-06-04T22:39:10;13.30;78.60
5786;DHT22;2919;48.630;9.000;2023-06-04T22:41:36;13.30;78.40
5786;DHT22;2919;48.630;9.000;2023-06-04T22:44:01;13.30;78.70
5786;DHT22;2919;48.630;9.000;2023-06-04T22:46:27;13.20;79.80
5786;DHT22;2919;48.630;9.000;2023-06-04T22:48:53;13.20;79.30
5786;DHT22;2919;48.630;9.000;2023-06-04T22:51:18;13.40;79.40
5786;DHT22;2919;48.630;9.000;2023-06-04T22:53:46;13.10;79.70
5786;DHT22;2919;48.630;9.000;2023-06-04T22:56:12;13.00;79.60
5786;DHT22;2919;48.630;9.000;2023-06-04T22:58:39;13.00;79.70
5786;DHT22;2919;48.630;9.000;2023-06-04T23:01:05;13.20;79.50
5786;DHT22;2919;48.630;9.000;2023-06-04T23:03:31;13.00;79.80
5786;DHT22;2919;48.630;9.000;2023-06-04T23:05:57;13.70;81.30
5786;DHT22;2919;48.630;9.000;2023-06-04T23:08:23;12.80;81.10
5786;DHT22;2919;48.630;9.000;2023-06-04T23:10:49;12.80;80.60
5786;DHT22;2919;48.630;9.000;2023-06-04T23:13:14;12.70;80.10
5786;DHT22;2919;48.630;9.000;2023-06-04T23:15:42;13.20;81.80
5786;DHT22;2919;48.630;9.000;2023-06-04T23:18:08;12.60;81.60
5786;DHT22;2919;48.630;9.000;2023-06-04T23:20:34;12.60;81.50
5786;DHT22;2919;48.630;9.000;2023-06-04T23:23:00;12.50;80.80
5786;DHT22;2919;48.630;9.000;2023-06-04T23:25:25;12.50;81.00
5786;DHT22;2919;48.630;9.000;2023-06-04T23:27:51;12.50;81.10
5786;DHT22;2919;48.630;9.000;2023-06-04T23:30:16;12.90;80.80
5786;DHT22;2919;48.630;9.000;2023-06-04T23:32:46;12.50;80.90
5786;DHT22;2919;48.630;9.000;2023-06-04T23:35:12;12.40;80.80
5786;DHT22;2919;48.630;9.000;2023-06-04T23:37:38;12.40;80.30
5786;DHT22;2919;48.630;9.000;2023-06-04T23:40:05;12.80;81.60
5786;DHT22;2919;48.630;9.000;2023-06-04T23:42:31;12.30;81.40
5786;DHT22;2919;48.630;9.000;2023-06-04T23:44:57;12.80;82.40
5786;DHT22;2919;48.630;9.000;2023-06-04T23:47:23;12.30;82.60
5786;DHT22;2919;48.630;9.000;2023-06-04T23:49:49;12.30;82.70
5786;DHT22;2919;48.630;9.000;2023-06-04T23:52:14;12.20;83.50
5786;DHT22;2919;48.630;9.000;2023-06-04T23:54:42;12.20;83.60
5786;DHT22;2919;48.630;9.000;2023-06-04T23:57:07;12.10;83.70
5786;DHT22;2919;48.630;9.000;2023-06-04T23:59:33;12.10;83.60
